Time;durP1;ratioP1;P1;durP2;ratioP2;P2;SDS_P1;SDS_P2;PMS_P1;PMS_P2;Temp;Humidity;BMP_temperature;BMP_pressure;BME280_temperature;BME280_humidity;BME280_pressure;Samples;Min_cycle;Max_cycle;Signal;HPM_P1;HPM_P2
2021/04/05 00:01:12;;;;;;;17.88;5.70;;;;;;;2.74;55.24;100546.16;5011498;28;20022;-65
2021/04/05 00:03:38;;;;;;;18.40;6.70;;;;;;;2.13;57.63;100543.41;5006966;28;20042;-68
2021/04/05 00:06:03;;;;;;;13.88;5.15;;;;;;;2.76;55.63;100534.09;5005691;28;20026;-68
2021/04/05 00:08:29;;;;;;;13.52;6.35;;;;;;;3.38;53.97;100523.75;5005504;28;20429;-68
2021/04/05 00:10:55;;;;;;;17.38;6.32;;;;;;;3.43;54.00;100515.97;5007254;28;20022;-69
2021/04/05 00:13:28;;;;;;;20.48;6.05;;;;;;;2.79;55.70;100523.72;5004780;28;20038;-69
2021/04/05 00:15:55;;;;;;;16.90;5.75;;;;;;;3.07;54.82;100497.50;5009000;28;20112;-68
2021/04/05 00:18:25;;;;;;;23.48;6.95;;;;;;;3.13;55.19;100502.59;5016090;28;20040;-68
2021/04/05 00:20:58;;;;;;;21.95;7.15;;;;;;;2.80;56.26;100503.91;5010165;28;20479;-68
2021/04/05 00:23:23;;;;;;;17.80;5.97;;;;;;;3.26;55.25;100485.19;5006678;28;20582;-67
2021/04/05 00:25:49;;;;;;;15.50;6.65;;;;;;;3.66;54.11;100471.63;5009811;28;20083;-70
2021/04/05 00:28:15;;;;;;;20.73;7.70;;;;;;;3.54;54.65;100463.22;4996046;28;20523;-68
2021/04/05 00:30:42;;;;;;;16.50;6.03;;;;;;;3.53;54.78;100456.31;5009448;28;20145;-67
2021/04/05 00:33:07;;;;;;;19.67;6.88;;;;;;;3.52;54.96;100446.88;5008109;28;20037;-67
2021/04/05 00:35:35;;;;;;;27.10;6.55;;;;;;;3.55;55.05;100439.06;5006580;28;20041;-69
2021/04/05 00:38:04;;;;;;;23.70;7.63;;;;;;;3.84;54.38;100431.66;5027567;28;20046;-68
2021/04/05 00:40:34;;;;;;;22.30;7.13;;;;;;;3.98;54.10;100427.06;5010141;28;20410;-69
2021/04/05 00:42:59;;;;;;;20.50;7.30;;;;;;;3.84;55.06;100429.91;5013004;28;20234;-70
2021/04/05 00:45:25;;;;;;;20.98;7.47;;;;;;;4.19;53.24;100418.03;5009717;28;20030;-70
2021/04/05 00:47:53;;;;;;;22.92;8.25;;;;;;;4.35;53.33;100409.06;5028783;28;20482;-68
2021/04/05 00:50:23;;;;;;;19.00;7.93;;;;;;;4.65;52.59;100404.09;5009630;28;20033;-68
2021/04/05 00:52:53;;;;;;;19.38;7.88;;;;;;;4.13;54.34;100408.66;5008998;28;20030;-68
2021/04/05 00:55:20;;;;;;;29.80;7.68;;;;;;;4.14;54.27;100400.03;5009077;28;20130;-68
2021/04/05 00:57:46;;;;;;;24.30;7.18;;;;;;;4.85;52.39;100382.91;5010265;28;20475;-67
2021/04/05 01:00:18;;;;;;;25.08;7.03;;;;;;;4.40;53.75;100391.69;5013034;28;20054;-66
2021/04/05 01:02:44;;;;;;;21.52;7.43;;;;;;;4.05;54.40;100369.19;5025900;28;20107;-66
2021/04/05 01:05:12;;;;;;;20.90;6.90;;;;;;;4.31;53.91;100358.25;5007513;28;20394;-66
2021/04/05 01:07:40;;;;;;;30.65;7.85;;;;;;;3.91;55.28;100353.94;5008764;28;20030;-67
2021/04/05 01:10:10;;;;;;;18.42;6.38;;;;;;;4.09;55.28;100355.28;5006907;28;20048;-67
2021/04/05 01:12:38;;;;;;;21.85;7.65;;;;;;;4.52;53.87;100330.19;5008828;28;20065;-66
2021/04/05 01:15:06;;;;;;;25.50;7.07;;;;;;;4.94;52.74;100337.84;5009936;28;20124;-68
2021/04/05 01:17:32;;;;;;;23.73;7.88;;;;;;;4.51;53.73;100324.16;5010001;28;20037;-68
2021/04/05 01:19:57;;;;;;;23.15;6.05;;;;;;;5.28;52.00;100322.28;5010204;28;20117;-67
2021/04/05 01:22:23;;;;;;;14.80;5.30;;;;;;;5.05;52.60;100302.16;5012155;28;20067;-68
2021/04/05 01:24:50;;;;;;;24.17;7.45;;;;;;;4.80;53.36;100297.56;5010322;28;20028;-68
2021/04/05 01:27:16;;;;;;;19.55;6.55;;;;;;;4.83;53.60;100305.28;5009873;28;20034;-68
2021/04/05 01:29:41;;;;;;;28.48;8.50;;;;;;;4.62;53.97;100279.91;5006643;28;20049;-68
2021/04/05 01:32:07;;;;;;;22.50;6.57;;;;;;;4.52;54.31;100262.91;5024754;28;20038;-68
2021/04/05 01:34:37;;;;;;;22.90;6.10;;;;;;;4.70;54.15;100267.63;5013540;28;20036;-69
2021/04/05 01:37:03;;;;;;;19.15;6.28;;;;;;;4.78;54.10;100255.31;5008250;28;20033;-69
2021/04/05 01:39:36;;;;;;;21.23;5.78;;;;;;;4.58;54.35;100262.75;5009573;28;20029;-69
2021/04/05 01:42:03;;;;;;;35.75;7.47;;;;;;;4.52;54.50;100237.03;5008408;28;20093;-68
2021/04/05 01:44:36;;;;;;;25.90;5.93;;;;;;;4.73;53.85;100235.66;5006837;28;20042;-66
2021/04/05 01:47:02;;;;;;;19.05;5.18;;;;;;;5.17;52.64;100236.22;5008817;28;20038;-68
2021/04/05 01:49:28;;;;;;;15.93;6.13;;;;;;;4.94;53.13;100229.06;5007011;28;20479;-69
2021/04/05 01:51:54;;;;;;;23.35;6.47;;;;;;;4.25;55.08;100223.03;5006333;28;20029;-66
2021/04/05 01:54:19;;;;;;;16.42;5.22;;;;;;;4.55;54.47;100226.59;5013660;28;20164;-67
2021/04/05 01:56:46;;;;;;;22.33;6.35;;;;;;;4.82;54.31;100209.50;5009048;28;20560;-67
2021/04/05 01:59:12;;;;;;;22.73;7.05;;;;;;;4.67;55.07;100215.09;5013001;28;20029;-66
2021/04/05 02:01:38;;;;;;;22.05;6.57;;;;;;;4.47;55.85;100213.00;5024996;28;20363;-67
2021/04/05 02:04:05;;;;;;;23.17;6.10;;;;;;;5.06;53.70;100197.66;5007652;28;20022;-68
2021/04/05 02:06:33;;;;;;;20.30;5.32;;;;;;;5.21;53.33;100186.00;5006556;28;20432;-67
2021/04/05 02:09:01;;;;;;;18.92;5.72;;;;;;;5.01;53.94;100174.50;5007510;28;20115;-66
2021/04/05 02:11:31;;;;;;;20.08;6.68;;;;;;;5.24;53.46;100179.00;5009869;28;20045;-66
2021/04/05 02:13:59;;;;;;;21.10;6.30;;;;;;;5.25;53.96;100182.44;5007358;28;20034;-65
2021/04/05 02:16:26;;;;;;;27.67;6.47;;;;;;;4.66;55.41;100179.75;5004350;28;20032;-65
2021/04/05 02:18:53;;;;;;;25.48;6.78;;;;;;;4.79;55.43;100170.75;5008797;28;20030;-66
2021/04/05 02:21:21;;;;;;;19.63;5.18;;;;;;;4.89;56.01;100177.41;5007128;28;20148;-66
2021/04/05 02:23:48;;;;;;;21.33;4.78;;;;;;;4.61;57.08;100154.84;5005807;28;20030;-67
2021/04/05 02:26:23;;;;;;;17.65;5.50;;;;;;;4.57;57.58;100162.72;5004767;28;20022;-67
2021/04/05 02:28:52;;;;;;;22.42;4.15;;;;;;;5.18;56.22;100155.00;5007566;28;20064;-66
2021/04/05 02:31:20;;;;;;;15.70;3.90;;;;;;;4.54;58.14;100149.84;5010014;28;20122;-66
2021/04/05 02:33:51;;;;;;;16.92;4.60;;;;;;;4.12;59.82;100145.75;5008338;28;20152;-66
2021/04/05 02:36:22;;;;;;;26.27;5.35;;;;;;;4.23;59.54;100137.72;5017917;28;20462;-68
2021/04/05 02:38:51;;;;;;;19.80;4.90;;;;;;;3.79;61.04;100134.47;5024271;28;20033;-69
2021/04/05 02:41:19;;;;;;;19.60;5.28;;;;;;;4.14;60.16;100140.50;5009273;28;20034;-67
2021/04/05 02:43:45;;;;;;;23.58;4.88;;;;;;;4.10;60.47;100121.66;5005529;28;20030;-67
2021/04/05 02:46:13;;;;;;;27.30;5.40;;;;;;;4.35;59.90;100129.63;5007766;28;20116;-67
2021/04/05 02:48:43;;;;;;;19.67;4.82;;;;;;;4.29;59.84;100116.84;5005990;28;20057;-67
2021/04/05 02:51:09;;;;;;;27.70;4.68;;;;;;;4.52;59.15;100105.03;5021997;28;20599;-68
2021/04/05 02:53:40;;;;;;;18.75;4.50;;;;;;;4.54;59.00;100100.66;5007314;28;20164;-68
2021/04/05 02:56:07;;;;;;;18.88;4.72;;;;;;;4.42;59.47;100102.69;5010878;28;20034;-68
2021/04/05 02:58:34;;;;;;;20.55;5.35;;;;;;;4.41;59.40;100111.38;5006773;28;20037;-67
2021/04/05 03:01:01;;;;;;;19.08;4.03;;;;;;;4.41;59.43;100126.88;5007850;28;20426;-70
2021/04/05 03:03:26;;;;;;;12.07;1.40;;;;;;;3.45;61.35;100119.75;5005580;28;20041;-69
2021/04/05 03:05:53;;;;;;;5.15;1.23;;;;;;;3.51;60.61;100127.34;5006824;28;20029;-69
2021/04/05 03:08:19;;;;;;;5.75;0.55;;;;;;;3.99;59.09;100134.00;5006948;28;20121;-69
2021/04/05 03:10:45;;;;;;;5.30;0.30;;;;;;;3.15;61.31;100118.63;5008801;28;20125;-68
2021/04/05 03:13:11;;;;;;;6.47;0.40;;;;;;;3.50;59.42;100135.16;5009284;28;20109;-69
2021/04/05 03:15:38;;;;;;;4.80;0.35;;;;;;;3.29;59.46;100132.16;5006556;28;20032;-69
2021/04/05 03:18:05;;;;;;;7.50;0.45;;;;;;;3.55;58.72;100113.47;5007769;28;20029;-70
2021/04/05 03:20:34;;;;;;;7.45;0.47;;;;;;;3.54;58.77;100106.63;5005568;28;20037;-70
2021/04/05 03:23:03;;;;;;;9.43;0.52;;;;;;;3.62;58.52;100116.75;5002743;28;20044;-70
2021/04/05 03:25:30;;;;;;;4.28;0.40;;;;;;;3.58;58.72;100113.41;5008447;28;20088;-69
2021/04/05 03:27:56;;;;;;;5.07;0.60;;;;;;;3.76;58.26;100124.19;5008629;28;20033;-69
2021/04/05 03:30:37;;;;;;;12.23;1.33;;;;;;;3.86;57.67;100117.09;5009363;28;20025;-68
2021/04/05 03:33:21;;;;;;;6.90;0.50;;;;;;;3.57;58.43;100137.53;5008310;28;20033;-69
2021/04/05 03:35:52;;;;;;;5.10;0.20;;;;;;;1.96;60.38;100124.31;5004706;28;20034;-70
2021/04/05 03:38:18;;;;;;;3.08;0.10;;;;;;;1.76;60.68;100150.41;5008074;28;20120;-70
2021/04/05 03:40:44;;;;;;;2.55;0.20;;;;;;;1.28;61.26;100153.59;5039048;22;20138;-65
2021/04/05 03:43:23;;;;;;;1.75;0.10;;;;;;;2.45;58.47;100154.44;5014797;28;20129;-66
2021/04/05 03:45:58;;;;;;;3.30;0.30;;;;;;;1.83;59.48;100157.16;4977356;28;20065;-65
2021/04/05 03:48:32;;;;;;;3.03;0.20;;;;;;;2.13;58.52;100153.22;4986845;28;20034;-67
2021/04/05 03:51:02;;;;;;;7.13;0.20;;;;;;;2.38;57.75;100163.13;4981502;28;20480;-68
2021/04/05 03:53:42;;;;;;;1.63;0.22;;;;;;;2.00;59.01;100149.16;4981407;28;20050;-67
2021/04/05 03:56:13;;;;;;;4.15;0.43;;;;;;;1.55;60.27;100154.13;4982813;28;20085;-65
2021/04/05 03:58:44;;;;;;;10.35;0.20;;;;;;;1.59;60.53;100148.06;4983744;28;20121;-67
2021/04/05 04:01:12;;;;;;;3.20;0.17;;;;;;;1.34;59.54;100153.53;4999011;28;20102;-66
2021/04/05 04:03:54;;;;;;;5.05;0.57;;;;;;;1.30;57.95;100146.69;4984922;28;20042;-66
2021/04/05 04:06:27;;;;;;;3.60;0.20;;;;;;;1.44;57.70;100155.16;4987384;28;20395;-66
2021/04/05 04:08:55;;;;;;;3.30;0.75;;;;;;;1.61;57.08;100143.75;4987552;28;20037;-67
2021/04/05 04:11:27;;;;;;;1.55;0.10;;;;;;;1.85;57.64;100143.38;4999623;28;20037;-65
2021/04/05 04:13:55;;;;;;;5.97;0.40;;;;;;;1.45;58.70;100123.34;4982450;28;20031;-66
2021/04/05 04:16:21;;;;;;;1.98;0.10;;;;;;;1.64;58.99;100125.66;4983140;28;20080;-66
2021/04/05 04:18:47;;;;;;;3.58;0.40;;;;;;;1.97;57.84;100113.13;4980252;28;20120;-65
2021/04/05 04:21:15;;;;;;;6.50;0.40;;;;;;;2.53;56.71;100114.72;5000300;28;20122;-65
2021/04/05 04:23:41;;;;;;;2.15;0.32;;;;;;;2.32;57.64;100123.69;4987568;28;20061;-66
2021/04/05 04:26:07;;;;;;;13.18;0.40;;;;;;;2.14;58.12;100126.59;4982987;28;20118;-66
2021/04/05 04:28:34;;;;;;;3.40;0.50;;;;;;;1.87;58.57;100126.16;4984850;28;20118;-65
2021/04/05 04:31:01;;;;;;;7.75;0.45;;;;;;;2.69;56.27;100132.47;4986269;28;20077;-65
2021/04/05 04:33:29;;;;;;;4.03;0.30;;;;;;;2.59;55.80;100149.84;4984020;28;20076;-66
2021/04/05 04:35:55;;;;;;;7.60;0.20;;;;;;;2.03;56.32;100146.53;4977980;28;20062;-65
2021/04/05 04:38:26;;;;;;;6.47;0.32;;;;;;;1.28;56.61;100153.59;4999629;28;20036;-64
2021/04/05 04:40:53;;;;;;;7.80;0.55;;;;;;;1.43;55.76;100160.31;4982440;28;20041;-64
2021/04/05 04:43:18;;;;;;;2.63;0.20;;;;;;;1.19;56.75;100164.00;4987513;28;20088;-65
2021/04/05 04:45:45;;;;;;;3.25;0.10;;;;;;;1.36;56.28;100171.53;4984340;28;20023;-65
2021/04/05 04:48:11;;;;;;;5.60;0.20;;;;;;;1.26;56.75;100186.22;4974102;28;20037;-66
2021/04/05 04:50:37;;;;;;;9.07;0.40;;;;;;;1.35;57.05;100174.97;4969461;28;20034;-66
2021/04/05 04:53:03;;;;;;;5.93;1.20;;;;;;;1.19;57.58;100169.16;4985116;28;20042;-67
2021/04/05 04:55:29;;;;;;;4.35;0.73;;;;;;;1.24;57.03;100163.09;5005132;28;20100;-66
2021/04/05 04:57:56;;;;;;;5.40;0.43;;;;;;;1.47;56.06;100167.13;4974587;28;20034;-66
2021/04/05 05:00:25;;;;;;;9.38;1.38;;;;;;;1.68;55.57;100153.91;4974782;28;20033;-66
2021/04/05 05:02:52;;;;;;;2.50;0.50;;;;;;;1.45;55.95;100145.69;4989388;28;20049;-66
2021/04/05 05:05:21;;;;;;;7.55;0.20;;;;;;;1.79;55.45;100134.88;4987159;28;20049;-65
2021/04/05 05:07:47;;;;;;;9.82;1.38;;;;;;;1.74;55.07;100127.22;4988893;28;20155;-65
2021/04/05 05:10:13;;;;;;;4.55;0.55;;;;;;;1.77;54.67;100146.94;4985676;28;20109;-65
2021/04/05 05:12:40;;;;;;;3.55;0.50;;;;;;;1.93;53.74;100144.13;4999764;28;20039;-64
2021/04/05 05:15:08;;;;;;;8.32;0.68;;;;;;;1.49;54.06;100143.03;4985709;28;20404;-66
2021/04/05 05:17:39;;;;;;;4.45;1.05;;;;;;;1.32;52.92;100142.38;5000870;28;20042;-65
2021/04/05 05:20:05;;;;;;;6.45;0.25;;;;;;;1.47;51.43;100159.41;4989234;28;20145;-64
2021/04/05 05:22:32;;;;;;;4.97;0.40;;;;;;;1.55;50.19;100173.03;4989161;28;20069;-65
2021/04/05 05:24:58;;;;;;;10.63;0.30;;;;;;;1.22;51.05;100169.16;4971415;28;20400;-64
2021/04/05 05:27:26;;;;;;;6.18;0.17;;;;;;;0.61;54.70;100186.97;4986885;28;20026;-66
2021/04/05 05:29:52;;;;;;;9.27;0.43;;;;;;;0.39;55.70;100190.56;4985717;28;20041;-67
2021/04/05 05:32:21;;;;;;;7.88;0.47;;;;;;;1.14;54.32;100188.97;4968564;28;20451;-67
2021/04/05 05:34:47;;;;;;;7.03;0.30;;;;;;;0.80;54.31;100187.63;4983844;28;20035;-66
2021/04/05 05:37:14;;;;;;;6.07;0.35;;;;;;;0.79;54.74;100187.63;4986880;28;20080;-64
2021/04/05 05:39:41;;;;;;;6.53;0.20;;;;;;;0.14;55.72;100190.78;4987235;28;20092;-66
2021/04/05 05:42:23;;;;;;;8.32;0.20;;;;;;;0.68;54.90;100191.19;4986903;28;20031;-66
2021/04/05 05:45:01;;;;;;;4.72;0.10;;;;;;;0.30;55.47;100201.81;4986869;28;20084;-66
2021/04/05 05:48:04;;;;;;;3.60;0.10;;;;;;;0.58;54.24;100204.97;4985668;28;20702;-66
2021/04/05 05:50:51;;;;;;;10.93;0.40;;;;;;;0.80;53.76;100204.78;4983736;28;20069;-66
2021/04/05 05:53:31;;;;;;;4.50;0.10;;;;;;;0.68;54.03;100213.47;5002210;28;20174;-67
2021/04/05 05:56:29;;;;;;;2.58;0.17;;;;;;;1.18;52.89;100203.50;4985965;28;20043;-66
2021/04/05 05:59:35;;;;;;;2.65;0.10;;;;;;;1.02;51.89;100203.69;4986368;28;20054;-67
2021/04/05 06:02:29;;;;;;;3.30;0.32;;;;;;;1.18;50.43;100203.50;5001851;28;20088;-66
2021/04/05 06:05:01;;;;;;;5.05;0.25;;;;;;;0.82;48.78;100206.47;4986866;28;20034;-65
2021/04/05 06:07:41;;;;;;;;;;;;;;;1.60;48.01;100209.03;4988231;28;20112;-66
2021/04/05 06:10:51;;;;;;;3.70;0.10;;;;;;;0.60;47.61;100195.53;4966114;28;19917;-67
2021/04/05 06:13:51;;;;;;;0.68;0.00;;;;;;;1.33;46.06;100203.31;4987594;28;20043;-66
2021/04/05 06:16:23;;;;;;;7.32;0.45;;;;;;;1.26;46.88;100201.66;4990261;28;20469;-67
2021/04/05 06:18:59;;;;;;;3.70;0.40;;;;;;;1.20;47.09;100194.06;4988535;28;20030;-66
2021/04/05 06:21:44;;;;;;;3.25;0.20;;;;;;;1.79;46.86;100192.41;5003047;28;20030;-67
2021/04/05 06:24:49;;;;;;;6.88;0.52;;;;;;;1.49;45.93;100194.56;4972282;28;20030;-66
2021/04/05 06:27:26;;;;;;;11.18;0.50;;;;;;;1.13;46.42;100184.66;4979759;28;20061;-69
2021/04/05 06:30:25;;;;;;;8.18;1.33;;;;;;;1.01;45.12;100177.97;4970782;28;20556;-70
2021/04/05 06:32:55;;;;;;;3.55;0.40;;;;;;;0.97;45.30;100195.16;4987457;28;20034;-70
2021/04/05 06:35:51;;;;;;;4.55;0.80;;;;;;;0.56;48.00;100199.00;5002575;28;20042;-70
2021/04/05 06:38:39;;;;;;;5.47;0.95;;;;;;;0.14;52.42;100206.19;4986707;28;20034;-70
2021/04/05 06:41:32;;;;;;;10.75;0.85;;;;;;;0.47;52.55;100215.34;5005308;28;20026;-69
2021/04/05 06:44:20;;;;;;;5.32;0.40;;;;;;;0.48;52.98;100221.38;4984934;28;20069;-68
2021/04/05 06:47:13;;;;;;;7.35;1.30;;;;;;;0.07;50.00;100227.66;4984831;28;20042;-70
2021/04/05 06:49:43;;;;;;;3.72;0.40;;;;;;;0.53;49.10;100213.63;5004965;28;20042;-71
2021/04/05 06:52:52;;;;;;;6.68;0.20;;;;;;;0.15;49.17;100207.06;4975973;28;20114;-68
2021/04/05 06:55:34;;;;;;;2.58;0.22;;;;;;;0.13;49.25;100194.22;4988610;28;20025;-68
2021/04/05 06:58:29;;;;;;;9.07;0.65;;;;;;;0.79;48.50;100200.50;4989290;28;20041;-69
2021/04/05 07:01:04;;;;;;;5.05;0.80;;;;;;;0.48;49.03;100200.81;4983940;28;20050;-66
2021/04/05 07:04:07;;;;;;;10.20;1.10;;;;;;;1.82;46.82;100207.84;5003187;28;20043;-68
2021/04/05 07:07:00;;;;;;;15.02;0.73;;;;;;;2.36;45.16;100204.44;4983656;28;20034;-67
2021/04/05 07:09:53;;;;;;;4.95;0.47;;;;;;;2.44;44.21;100201.72;5002656;28;20137;-67
2021/04/05 07:12:31;;;;;;;6.38;0.38;;;;;;;2.45;46.20;100208.59;4981526;28;20434;-67
2021/04/05 07:15:09;;;;;;;7.82;1.52;;;;;;;2.81;45.09;100222.56;5001612;28;20035;-66
2021/04/05 07:18:12;;;;;;;1.17;0.15;;;;;;;1.23;46.11;100238.59;4971175;28;20036;-66
2021/04/05 07:21:10;;;;;;;6.60;0.30;;;;;;;1.45;48.52;100253.84;5000474;28;20042;-67
2021/04/05 07:24:07;;;;;;;7.93;0.32;;;;;;;0.55;52.47;100253.03;4973402;28;20077;-67
2021/04/05 07:26:36;;;;;;;3.10;0.40;;;;;;;0.29;53.10;100256.66;4985582;28;20285;-68
2021/04/05 07:29:15;;;;;;;9.32;0.50;;;;;;;0.80;51.83;100264.81;4983582;28;20026;-66
2021/04/05 07:31:55;;;;;;;3.72;0.88;;;;;;;-0.30;54.07;100292.13;5000571;28;20042;-68
2021/04/05 07:34:37;;;;;;;3.25;0.17;;;;;;;-1.11;56.00;100295.69;4989252;28;20101;-66
2021/04/05 07:37:17;;;;;;;4.47;0.17;;;;;;;-1.31;57.66;100313.66;5001268;28;20622;-66
2021/04/05 07:40:05;;;;;;;0.75;0.17;;;;;;;-0.82;56.25;100321.34;4981337;28;20065;-67
2021/04/05 07:43:01;;;;;;;1.95;0.10;;;;;;;-1.14;57.08;100315.38;4999952;28;20088;-67
2021/04/05 07:45:39;;;;;;;1.85;0.30;;;;;;;-0.08;54.56;100316.00;4982718;28;20512;-68
2021/04/05 07:48:30;;;;;;;4.18;0.20;;;;;;;-1.33;56.24;100346.16;4986207;28;20034;-65
2021/04/05 07:51:22;;;;;;;9.00;0.25;;;;;;;-1.20;55.61;100341.88;4977887;28;20134;-66
2021/04/05 07:53:57;;;;;;;12.40;0.30;;;;;;;-1.60;56.47;100346.97;4980930;28;20057;-67
2021/04/05 07:56:38;;;;;;;9.80;0.22;;;;;;;-1.26;54.74;100342.75;4987768;28;20044;-66
2021/04/05 07:59:13;;;;;;;10.25;0.98;;;;;;;-0.23;51.58;100345.16;4983356;28;20041;-66
2021/04/05 08:01:49;;;;;;;4.22;0.30;;;;;;;0.03;50.30;100331.34;4982556;28;20539;-65
2021/04/05 08:04:21;;;;;;;4.38;0.77;;;;;;;0.20;49.20;100342.38;4984807;28;20022;-67
2021/04/05 08:06:59;;;;;;;4.20;0.20;;;;;;;0.57;47.31;100339.59;4985377;28;20369;-67
2021/04/05 08:09:29;;;;;;;10.27;0.82;;;;;;;0.42;46.70;100355.13;4988035;28;20040;-65
2021/04/05 08:12:06;;;;;;;7.50;0.77;;;;;;;0.83;45.48;100341.09;4984458;28;20741;-68
2021/04/05 08:14:35;;;;;;;14.52;0.45;;;;;;;-0.33;46.22;100347.75;4970457;28;20045;-65
2021/04/05 08:17:15;;;;;;;10.02;0.40;;;;;;;0.10;43.15;100343.31;4988556;28;20038;-67
2021/04/05 08:19:55;;;;;;;4.40;0.52;;;;;;;-0.31;42.51;100364.88;4984208;28;20042;-67
2021/04/05 08:22:36;;;;;;;4.47;0.52;;;;;;;-0.48;42.60;100357.22;5003464;28;20049;-67
2021/04/05 08:25:11;;;;;;;10.80;0.50;;;;;;;0.41;41.43;100359.41;4979751;28;20036;-68
2021/04/05 08:27:48;;;;;;;8.13;0.80;;;;;;;1.44;40.61;100355.13;5001293;28;20046;-66
2021/04/05 08:30:23;;;;;;;4.80;0.85;;;;;;;1.99;38.10;100345.94;4979190;28;20069;-67
2021/04/05 08:33:26;;;;;;;7.80;0.45;;;;;;;3.06;36.42;100357.22;4986998;28;20045;-68
2021/04/05 08:36:00;;;;;;;;;;;;;;;3.23;36.74;100412.91;4984132;28;20552;-66
2021/04/05 08:39:13;;;;;;;6.43;1.02;;;;;;;0.11;44.25;100411.81;5004810;28;19932;-68
2021/04/05 08:42:15;;;;;;;3.65;0.43;;;;;;;-1.27;45.05;100417.09;4973393;28;20060;-66
2021/04/05 08:44:54;;;;;;;;;;;;;;;-0.88;44.36;100433.44;4988765;28;20034;-67
2021/04/05 08:47:28;;;;;;;2.83;0.20;;;;;;;-0.30;43.33;100446.22;4989914;28;19940;-68
2021/04/05 08:50:03;;;;;;;3.97;0.20;;;;;;;-0.84;44.90;100443.69;4986256;28;20053;-68
2021/04/05 08:52:33;;;;;;;2.80;0.25;;;;;;;-2.01;48.11;100427.97;4989045;28;20049;-66
2021/04/05 08:55:01;;;;;;;7.45;0.50;;;;;;;-1.17;47.24;100423.97;4985354;28;20026;-66
2021/04/05 08:57:38;;;;;;;3.50;0.73;;;;;;;0.20;43.64;100406.63;5000836;28;20033;-67
2021/04/05 09:00:10;;;;;;;4.88;0.47;;;;;;;0.61;41.45;100394.41;4981473;28;20038;-67
2021/04/05 09:02:58;;;;;;;3.30;0.40;;;;;;;1.66;39.57;100387.56;4966077;28;20074;-67
2021/04/05 09:05:26;;;;;;;13.95;1.38;;;;;;;2.32;37.02;100381.56;4985547;28;20045;-67
2021/04/05 09:07:54;;;;;;;9.65;0.55;;;;;;;2.68;36.78;100381.91;4986309;28;20048;-67
2021/04/05 09:10:33;;;;;;;2.80;0.30;;;;;;;3.53;35.47;100383.97;5006075;28;20042;-67
2021/04/05 09:13:00;;;;;;;2.50;0.50;;;;;;;5.02;33.29;100374.78;4989754;28;20077;-68
2021/04/05 09:15:29;;;;;;;11.05;0.90;;;;;;;4.50;33.17;100378.53;4966535;28;20038;-68
2021/04/05 09:18:19;;;;;;;12.50;0.77;;;;;;;4.50;33.27;100368.19;4986944;28;20638;-67
2021/04/05 09:21:09;;;;;;;10.98;0.73;;;;;;;4.88;33.29;100379.41;4985415;28;20553;-66
2021/04/05 09:24:00;;;;;;;11.27;0.50;;;;;;;3.58;35.33;100384.75;4984088;28;20054;-66
2021/04/05 09:26:56;;;;;;;8.20;0.65;;;;;;;3.58;34.75;100376.13;4995673;28;20081;-69
2021/04/05 09:29:42;;;;;;;6.30;1.17;;;;;;;2.50;36.50;100387.34;4985590;28;20037;-69
2021/04/05 09:32:17;;;;;;;4.28;1.50;;;;;;;1.97;35.19;100388.91;4985285;28;20554;-66
2021/04/05 09:35:23;;;;;;;1.95;0.47;;;;;;;2.42;30.35;100389.19;4982947;28;20039;-68
2021/04/05 09:38:14;;;;;;;2.65;0.65;;;;;;;2.37;28.50;100391.81;4986476;28;20025;-67
2021/04/05 09:41:13;;;;;;;5.03;0.47;;;;;;;2.43;28.26;100390.91;4985068;28;20039;-69
2021/04/05 09:43:57;;;;;;;5.93;0.30;;;;;;;2.14;27.58;100407.63;4984329;28;20035;-69
2021/04/05 09:47:02;;;;;;;1.70;0.47;;;;;;;2.80;26.73;100403.25;4971329;28;20375;-67
2021/04/05 09:49:49;;;;;;;4.43;0.20;;;;;;;3.64;26.01;100393.25;4934347;28;20050;-66
2021/04/05 09:53:02;;;;;;;2.28;0.35;;;;;;;3.49;29.68;100397.84;4996002;28;20034;-67
2021/04/05 09:55:36;;;;;;;6.47;0.40;;;;;;;2.83;33.20;100410.97;4934592;28;20054;-66
2021/04/05 09:58:10;;;;;;;6.18;1.30;;;;;;;0.60;38.42;100459.59;4993601;28;20555;-68
2021/04/05 10:00:37;;;;;;;1.00;0.20;;;;;;;0.30;41.64;100478.56;4968281;28;20081;-68
2021/04/05 10:03:07;;;;;;;2.70;0.65;;;;;;;-0.63;43.39;100494.16;4964413;28;20053;-69
2021/04/05 10:05:35;;;;;;;1.00;0.10;;;;;;;-0.88;43.91;100483.03;4980271;28;20066;-68
2021/04/05 10:08:01;;;;;;;5.50;0.50;;;;;;;-0.82;43.50;100492.44;4966298;28;20034;-68
2021/04/05 10:10:29;;;;;;;3.20;0.30;;;;;;;-0.38;41.91;100476.16;4965600;28;20050;-67
2021/04/05 10:12:58;;;;;;;4.25;1.15;;;;;;;-0.18;42.71;100487.28;4979766;28;20031;-66
2021/04/05 10:15:27;;;;;;;5.38;0.52;;;;;;;-0.38;45.03;100491.56;4962795;28;20090;-67
2021/04/05 10:17:55;;;;;;;2.00;0.10;;;;;;;0.56;43.43;100492.16;4964951;28;20038;-67
2021/04/05 10:20:26;;;;;;;10.27;0.57;;;;;;;1.95;39.98;100486.88;4969522;28;20035;-67
2021/04/05 10:22:53;;;;;;;7.97;0.10;;;;;;;2.15;38.29;100473.75;4964978;28;20387;-67
2021/04/05 10:25:21;;;;;;;6.28;0.65;;;;;;;2.03;38.28;100485.06;4984978;28;20353;-67
2021/04/05 10:27:48;;;;;;;1.17;0.10;;;;;;;2.25;37.70;100484.84;4965654;28;20065;-67
2021/04/05 10:30:16;;;;;;;1.48;0.35;;;;;;;1.83;38.08;100467.25;4967215;28;20052;-68
2021/04/05 10:32:42;;;;;;;4.13;0.52;;;;;;;2.89;37.76;100483.13;4969063;28;20077;-67
2021/04/05 10:35:12;;;;;;;7.32;1.65;;;;;;;3.93;35.62;100481.47;4968179;28;20033;-68
2021/04/05 10:37:44;;;;;;;5.47;0.20;;;;;;;3.50;35.64;100479.66;4968667;28;20066;-67
2021/04/05 10:40:15;;;;;;;9.60;0.53;;;;;;;2.30;37.88;100473.59;4982332;28;20062;-67
2021/04/05 10:42:48;;;;;;;11.40;0.68;;;;;;;1.98;39.94;100483.44;4970187;28;20297;-68
2021/04/05 10:45:26;;;;;;;2.00;0.38;;;;;;;1.95;35.43;100492.03;4966366;28;20066;-66
2021/04/05 10:48:14;;;;;;;6.05;0.82;;;;;;;2.39;34.13;100487.25;4965351;28;20039;-67
2021/04/05 10:50:53;;;;;;;5.68;0.30;;;;;;;2.56;33.49;100490.47;4963750;28;20878;-66
2021/04/05 10:53:22;;;;;;;3.38;0.20;;;;;;;3.41;33.08;100502.22;4967299;28;20432;-66
2021/04/05 10:55:54;;;;;;;2.70;0.32;;;;;;;3.59;32.24;100494.13;4970172;28;20113;-66
2021/04/05 10:58:33;;;;;;;4.00;0.20;;;;;;;4.07;32.36;100493.28;4963842;28;20093;-68
2021/04/05 11:01:01;;;;;;;1.60;0.68;;;;;;;3.38;32.09;100498.78;4980820;28;20576;-66
2021/04/05 11:03:28;;;;;;;2.63;0.20;;;;;;;3.07;33.23;100487.19;4962636;28;20073;-66
2021/04/05 11:05:58;;;;;;;6.82;0.40;;;;;;;4.00;32.47;100493.38;4970476;28;20031;-65
2021/04/05 11:08:28;;;;;;;1.88;0.13;;;;;;;2.92;33.91;100499.44;4964018;28;20030;-66
2021/04/05 11:11:12;;;;;;;7.53;0.20;;;;;;;3.47;33.19;100491.75;4967669;28;20031;-66
2021/04/05 11:13:41;;;;;;;3.42;0.25;;;;;;;4.21;33.16;100499.06;4966797;28;20046;-67
2021/04/05 11:16:13;;;;;;;7.25;0.50;;;;;;;4.17;32.90;100500.00;4981628;28;20058;-65
2021/04/05 11:18:53;;;;;;;5.18;0.50;;;;;;;3.74;34.85;100505.97;4965422;28;20405;-68
2021/04/05 11:21:22;;;;;;;3.97;0.17;;;;;;;2.42;36.46;100523.31;4967871;28;20049;-64
2021/04/05 11:23:54;;;;;;;2.10;0.10;;;;;;;1.95;36.33;100520.38;4982991;28;20126;-67
2021/04/05 11:26:34;;;;;;;1.45;0.20;;;;;;;1.89;36.64;100518.72;4964271;28;20044;-66
2021/04/05 11:29:05;;;;;;;4.57;0.75;;;;;;;2.26;37.21;100508.00;4981798;28;20499;-66
2021/04/05 11:31:40;;;;;;;2.97;0.20;;;;;;;3.36;34.86;100502.28;4983368;28;20049;-65
2021/04/05 11:34:07;;;;;;;7.50;0.20;;;;;;;3.71;34.01;100493.91;4984483;28;20049;-67
2021/04/05 11:36:47;;;;;;;5.85;0.28;;;;;;;2.14;34.74;100503.00;4965048;28;20026;-67
2021/04/05 11:39:19;;;;;;;4.28;0.55;;;;;;;2.61;34.95;100508.47;4967761;28;20047;-68
2021/04/05 11:41:52;;;;;;;5.97;0.10;;;;;;;2.25;35.30;100503.75;4978121;28;20047;-66
2021/04/05 11:44:21;;;;;;;5.47;0.40;;;;;;;3.06;34.42;100517.31;4967168;28;20048;-67
2021/04/05 11:46:48;;;;;;;2.95;0.50;;;;;;;4.20;32.52;100505.09;4999508;28;20038;-67
2021/04/05 11:49:17;;;;;;;5.07;0.60;;;;;;;3.94;32.88;100497.81;4983703;28;20034;-68
2021/04/05 11:52:11;;;;;;;8.13;0.35;;;;;;;3.25;33.39;100511.88;4980726;28;20104;-71
2021/04/05 11:54:57;;;;;;;9.02;0.73;;;;;;;3.92;34.27;100520.28;4964784;28;20545;-68
2021/04/05 11:57:27;;;;;;;5.93;0.30;;;;;;;3.54;34.06;100517.47;4997747;28;20042;-67
2021/04/05 12:00:00;;;;;;;8.23;0.68;;;;;;;4.27;33.54;100527.38;4968083;28;20399;-68
2021/04/05 12:02:33;;;;;;;2.05;0.20;;;;;;;4.22;32.61;100517.13;4963873;28;20059;-67
2021/04/05 12:05:05;;;;;;;3.65;0.25;;;;;;;5.34;31.85;100513.03;4982671;28;20038;-67